Time;durP1;ratioP1;P1;durP2;ratioP2;P2;SDS_P1;SDS_P2;PMS_P1;PMS_P2;Temp;Humidity;BMP_temperature;BMP_pressure;BME280_temperature;BME280_humidity;BME280_pressure;Samples;Min_cycle;Max_cycle;Signal;HPM_P1;HPM_P2
2023/05/14 00:01:36;;;;;;;1.13;0.63;;;;;;;16.52;59.58;101323.69;4871628;29;20043;-65
2023/05/14 00:04:04;;;;;;;1.60;0.68;;;;;;;16.61;59.88;101314.06;4889292;29;20063;-65
2023/05/14 00:06:33;;;;;;;0.93;0.77;;;;;;;16.56;nan;101319.84;4888363;29;20156;-65
2023/05/14 00:08:58;;;;;;;0.77;0.60;;;;;;;16.55;60.22;101310.13;4874852;29;20136;-65
2023/05/14 00:11:24;;;;;;;0.85;0.73;;;;;;;16.44;59.43;101308.47;4868114;29;20190;-66
2023/05/14 00:13:49;;;;;;;2.22;1.25;;;;;;;16.48;59.40;101307.38;4887495;29;20099;-65
2023/05/14 00:16:15;;;;;;;2.08;1.13;;;;;;;16.38;60.75;101291.72;4884960;29;20033;-65
2023/05/14 00:18:40;;;;;;;0.80;0.80;;;;;;;16.22;61.82;101291.22;4885349;29;20561;-65
2023/05/14 00:21:06;;;;;;;2.40;1.35;;;;;;;16.03;61.61;101291.44;4886052;29;20091;-66
2023/05/14 00:23:31;;;;;;;0.90;0.80;;;;;;;16.05;61.71;101298.06;4884312;29;20059;-65
2023/05/14 00:25:57;;;;;;;1.25;0.80;;;;;;;16.08;62.04;101296.56;4880384;29;20192;-65
2023/05/14 00:28:22;;;;;;;1.00;0.88;;;;;;;15.99;60.86;101296.06;4886506;29;20048;-65
2023/05/14 00:30:48;;;;;;;1.30;0.95;;;;;;;16.12;61.83;101300.09;4887333;29;20036;-65
2023/05/14 00:33:14;;;;;;;1.38;1.00;;;;;;;16.26;60.43;101292.81;4912040;28;20042;-65
2023/05/14 00:35:39;;;;;;;0.80;0.70;;;;;;;16.39;59.95;101297.94;4964639;28;20022;-65
2023/05/14 00:38:05;;;;;;;0.80;0.70;;;;;;;16.36;59.14;101306.84;4955463;28;20035;-65
2023/05/14 00:40:30;;;;;;;1.35;1.00;;;;;;;16.50;59.16;101310.50;4978104;28;20046;-65
2023/05/14 00:42:56;;;;;;;1.15;0.88;;;;;;;16.48;58.94;101296.50;4989148;28;20070;-65
2023/05/14 00:45:21;;;;;;;2.75;0.80;;;;;;;16.46;60.00;101298.00;4982635;28;20487;-66
2023/05/14 00:47:47;;;;;;;1.63;0.90;;;;;;;16.36;60.01;101295.97;4977371;28;20106;-67
2023/05/14 00:50:14;;;;;;;1.73;0.88;;;;;;;16.32;60.79;101297.91;4971286;28;20042;-65
2023/05/14 00:52:41;;;;;;;1.48;0.90;;;;;;;16.28;60.68;101292.44;4977854;28;20092;-67
2023/05/14 00:55:09;;;;;;;2.15;1.20;;;;;;;16.21;61.81;101295.88;4981681;28;20066;-64
2023/05/14 00:57:35;;;;;;;1.33;1.00;;;;;;;16.06;62.29;101291.50;4978699;28;20038;-64
2023/05/14 01:00:02;;;;;;;1.33;0.77;;;;;;;15.81;62.83;101293.22;4961773;28;20062;-65
2023/05/14 01:02:28;;;;;;;1.42;0.85;;;;;;;15.70;64.30;101299.69;4959351;28;20415;-65
2023/05/14 01:04:54;;;;;;;0.55;0.55;;;;;;;15.60;64.19;101295.69;4981952;28;20038;-65
2023/05/14 01:07:28;;;;;;;2.90;1.00;;;;;;;15.42;64.86;101292.03;4968805;28;20553;-65
2023/05/14 01:10:00;;;;;;;0.70;0.70;;;;;;;15.36;65.63;101298.91;4966822;28;20551;-64
2023/05/14 01:12:33;;;;;;;0.68;0.68;;;;;;;15.29;65.38;101296.13;4982871;28;20169;-65
2023/05/14 01:15:14;;;;;;;1.13;0.85;;;;;;;15.37;65.51;101289.59;4968858;28;20092;-64
2023/05/14 01:17:47;;;;;;;1.25;0.70;;;;;;;15.23;66.51;101290.22;4984422;28;20121;-64
2023/05/14 01:20:14;;;;;;;0.70;0.70;;;;;;;15.13;66.72;101292.81;4964104;28;20042;-65
2023/05/14 01:22:39;;;;;;;2.10;1.10;;;;;;;15.16;67.34;101297.50;4973461;28;20039;-65
2023/05/14 01:25:05;;;;;;;1.15;0.85;;;;;;;15.26;66.88;101294.94;4982872;28;20675;-65
2023/05/14 01:28:12;;;;;;;1.23;0.95;;;;;;;15.31;66.50;101291.88;4964002;28;20034;-65
2023/05/14 01:30:56;;;;;;;1.27;0.77;;;;;;;15.30;66.30;101295.75;4900565;29;20122;-65
2023/05/14 01:33:24;;;;;;;1.10;0.70;;;;;;;15.36;66.59;101282.63;4913430;29;20176;-65
2023/05/14 01:35:53;;;;;;;2.38;1.00;;;;;;;15.09;66.93;101289.28;4940013;28;20042;-64
2023/05/14 01:38:19;;;;;;;2.47;1.17;;;;;;;15.10;67.18;101290.84;4944322;28;20026;-65
2023/05/14 01:40:46;;;;;;;1.70;1.10;;;;;;;15.15;67.33;101298.66;4972248;28;20030;-65
2023/05/14 01:43:13;;;;;;;1.65;1.05;;;;;;;15.11;67.41;101284.28;4963962;28;20487;-65
2023/05/14 01:45:42;;;;;;;1.13;0.95;;;;;;;14.92;68.09;101293.34;4965907;28;20053;-65
2023/05/14 01:48:08;;;;;;;2.13;1.30;;;;;;;14.72;69.42;101291.91;4972735;28;20036;-65
2023/05/14 01:50:34;;;;;;;1.40;0.95;;;;;;;14.74;69.70;101294.25;4969896;28;20030;-63
2023/05/14 01:52:59;;;;;;;0.85;0.75;;;;;;;15.00;68.50;101292.28;4969525;28;20037;-65
2023/05/14 01:55:26;;;;;;;1.48;1.15;;;;;;;15.12;68.29;101285.81;4984203;28;20038;-65
2023/05/14 01:57:51;;;;;;;1.42;0.90;;;;;;;15.12;68.05;101288.53;4968954;28;20454;-66
2023/05/14 02:00:18;;;;;;;0.80;0.70;;;;;;;15.10;67.81;101288.13;4963309;28;20032;-65
2023/05/14 02:02:43;;;;;;;1.17;1.08;;;;;;;15.02;68.01;101291.94;4980922;28;20046;-65
2023/05/14 02:05:11;;;;;;;1.17;0.88;;;;;;;14.87;67.44;101292.88;4989935;28;20030;-64
2023/05/14 02:07:37;;;;;;;1.38;0.80;;;;;;;14.99;67.64;101288.00;4969165;28;20035;-65
2023/05/14 02:10:03;;;;;;;1.17;0.90;;;;;;;14.90;68.56;101284.00;4983646;28;20089;-65
2023/05/14 02:12:28;;;;;;;1.42;1.02;;;;;;;14.81;69.12;101286.19;4972351;28;20380;-64
2023/05/14 02:14:54;;;;;;;1.48;0.90;;;;;;;14.87;68.73;101279.31;4987449;28;20037;-65
2023/05/14 02:17:19;;;;;;;0.80;0.80;;;;;;;14.78;68.99;101282.31;4972438;28;20069;-65
2023/05/14 02:19:45;;;;;;;1.58;0.90;;;;;;;14.84;69.28;101285.47;4989544;28;20448;-65
2023/05/14 02:22:11;;;;;;;2.00;1.10;;;;;;;14.86;69.20;101289.41;4981333;28;20048;-65
2023/05/14 02:24:37;;;;;;;1.50;1.23;;;;;;;14.83;69.18;101284.69;4965323;28;20022;-65
2023/05/14 02:27:02;;;;;;;1.80;1.17;;;;;;;14.69;69.27;101279.06;4966426;28;20134;-65
2023/05/14 02:29:28;;;;;;;1.83;1.02;;;;;;;14.58;70.50;101278.16;4981166;28;20031;-64
2023/05/14 02:31:53;;;;;;;0.77;0.68;;;;;;;14.48;70.58;101276.06;4970267;28;20096;-64
2023/05/14 02:34:19;;;;;;;1.38;0.95;;;;;;;14.36;70.67;101287.88;4972532;28;20118;-65
2023/05/14 02:36:44;;;;;;;1.52;0.90;;;;;;;14.12;71.45;101277.44;4977255;28;20037;-64
2023/05/14 02:39:09;;;;;;;1.10;1.00;;;;;;;14.13;72.01;101280.94;4979017;28;20030;-64
2023/05/14 02:41:35;;;;;;;1.02;0.93;;;;;;;14.16;71.82;101272.84;4949775;28;20214;-65
2023/05/14 02:44:00;;;;;;;2.33;0.93;;;;;;;14.08;72.43;101275.81;4987979;28;20081;-65
2023/05/14 02:46:26;;;;;;;4.72;0.90;;;;;;;13.99;72.92;101273.34;4971462;28;20089;-65
2023/05/14 02:48:51;;;;;;;2.15;0.93;;;;;;;13.97;72.87;101267.53;4965515;28;20026;-65
2023/05/14 02:51:19;;;;;;;1.10;0.85;;;;;;;13.94;73.05;101264.72;4970834;28;20113;-64
2023/05/14 02:53:45;;;;;;;1.15;1.05;;;;;;;13.89;73.19;101265.84;4967030;28;21830;-65
2023/05/14 02:56:10;;;;;;;1.80;1.42;;;;;;;13.77;73.94;101266.00;4968658;28;20073;-64
2023/05/14 02:58:36;;;;;;;1.60;0.95;;;;;;;13.64;74.22;101266.53;4963900;28;20069;-65
2023/05/14 03:01:01;;;;;;;1.80;0.93;;;;;;;13.63;74.61;101263.03;4965777;28;20080;-65
2023/05/14 03:03:28;;;;;;;3.85;1.65;;;;;;;13.94;73.58;101260.09;4988894;28;20526;-65
2023/05/14 03:05:59;;;;;;;1.02;0.60;;;;;;;14.17;72.58;101266.28;4962853;28;20109;-65
2023/05/14 03:08:25;;;;;;;1.30;1.20;;;;;;;14.15;72.20;101263.16;4977497;28;20061;-64
2023/05/14 03:10:53;;;;;;;2.47;1.00;;;;;;;14.20;72.09;101264.78;4979060;28;20713;-65
2023/05/14 03:13:19;;;;;;;3.13;0.90;;;;;;;14.20;72.10;101262.84;4982478;28;20042;-65
2023/05/14 03:15:46;;;;;;;0.70;0.68;;;;;;;14.29;71.64;101259.91;4974000;28;20187;-65
2023/05/14 03:18:12;;;;;;;2.70;0.98;;;;;;;14.20;71.25;101262.84;4952446;28;20035;-64
2023/05/14 03:20:37;;;;;;;1.20;1.00;;;;;;;14.31;70.81;101258.41;4986115;28;20048;-65
2023/05/14 03:23:04;;;;;;;1.80;1.17;;;;;;;14.42;70.81;101258.53;4982284;28;20057;-66
2023/05/14 03:25:30;;;;;;;2.25;1.30;;;;;;;14.41;70.26;101260.50;4958916;28;20050;-65
2023/05/14 03:27:56;;;;;;;1.58;1.08;;;;;;;14.48;70.72;101267.16;4984436;28;20030;-66
2023/05/14 03:30:22;;;;;;;1.38;0.90;;;;;;;14.52;69.93;101257.16;4987135;28;20446;-64
2023/05/14 03:32:47;;;;;;;1.10;1.00;;;;;;;14.48;70.48;101259.78;4978421;28;20081;-66
2023/05/14 03:35:13;;;;;;;1.60;0.95;;;;;;;14.40;70.69;101255.44;4968404;28;20051;-66
2023/05/14 03:37:38;;;;;;;1.33;1.23;;;;;;;14.23;70.68;101259.41;4978492;28;20082;-65
2023/05/14 03:40:04;;;;;;;1.50;1.10;;;;;;;14.17;70.96;101257.38;4989938;28;20065;-64
2023/05/14 03:42:30;;;;;;;1.45;1.08;;;;;;;14.22;71.50;101265.19;4983348;28;20030;-66
2023/05/14 03:44:55;;;;;;;1.95;1.15;;;;;;;14.18;71.73;101257.03;4965841;28;20030;-66
2023/05/14 03:47:20;;;;;;;1.85;0.80;;;;;;;14.25;71.90;101261.75;4966371;28;20052;-64
2023/05/14 03:49:46;;;;;;;1.70;1.00;;;;;;;14.27;71.62;101263.00;4964916;28;20062;-65
2023/05/14 03:52:13;;;;;;;1.10;0.80;;;;;;;14.44;70.54;101257.03;4969732;28;20034;-66
2023/05/14 03:54:41;;;;;;;0.77;0.73;;;;;;;14.46;70.72;101249.34;4966794;28;20088;-65
2023/05/14 03:57:07;;;;;;;1.98;1.13;;;;;;;14.41;70.66;101260.50;4957280;28;20154;-66
2023/05/14 03:59:32;;;;;;;2.40;1.30;;;;;;;14.31;71.52;101250.28;4984976;28;20019;-65
2023/05/14 04:01:58;;;;;;;1.13;0.90;;;;;;;14.37;71.26;101261.59;4949145;28;20057;-66
2023/05/14 04:04:24;;;;;;;1.98;1.05;;;;;;;14.41;71.33;101257.78;4948565;28;20030;-65
2023/05/14 04:06:50;;;;;;;2.80;1.20;;;;;;;14.42;71.58;101258.53;4981425;28;20675;-65
2023/05/14 04:09:18;;;;;;;1.08;0.98;;;;;;;14.44;71.78;101261.69;4947677;28;20033;-65
2023/05/14 04:11:43;;;;;;;3.42;1.25;;;;;;;14.31;72.65;101263.03;4968349;28;20422;-63
2023/05/14 04:14:11;;;;;;;2.70;0.90;;;;;;;14.34;72.76;101268.50;4965992;28;20030;-65
2023/05/14 04:16:37;;;;;;;1.35;0.88;;;;;;;14.22;73.15;101259.78;4966957;28;20106;-66
2023/05/14 04:19:04;;;;;;;1.02;0.93;;;;;;;14.40;73.01;101261.63;4960804;28;20065;-66
2023/05/14 04:21:30;;;;;;;1.92;1.17;;;;;;;14.45;72.67;101255.91;4967274;28;20081;-66
2023/05/14 04:23:55;;;;;;;1.63;1.42;;;;;;;14.29;72.69;101258.00;4988163;28;20058;-66
2023/05/14 04:26:21;;;;;;;1.80;1.23;;;;;;;14.43;72.36;101258.19;4989485;28;20034;-66
2023/05/14 04:28:47;;;;;;;1.83;0.85;;;;;;;14.44;71.74;101256.25;4991747;28;20426;-65
2023/05/14 04:31:12;;;;;;;0.88;0.88;;;;;;;14.38;72.26;101261.22;4983104;28;20034;-64
2023/05/14 04:33:38;;;;;;;1.83;1.23;;;;;;;14.48;72.36;101260.59;4975986;28;20034;-67
2023/05/14 04:36:04;;;;;;;2.10;0.70;;;;;;;14.60;71.32;101246.03;4989885;28;20029;-65
2023/05/14 04:38:30;;;;;;;1.58;1.33;;;;;;;14.57;71.88;101254.13;4990373;28;20053;-66
2023/05/14 04:40:57;;;;;;;1.17;1.08;;;;;;;14.57;71.59;101259.53;4989435;28;20076;-66
2023/05/14 04:43:23;;;;;;;1.02;0.93;;;;;;;14.71;71.22;101254.31;4990521;28;20061;-66
2023/05/14 04:45:48;;;;;;;2.05;0.88;;;;;;;14.61;71.11;101257.66;4990109;28;20030;-65
2023/05/14 04:48:14;;;;;;;1.95;1.33;;;;;;;14.69;71.32;101253.91;4970714;28;20038;-64
2023/05/14 04:50:39;;;;;;;1.48;0.98;;;;;;;14.85;70.51;101259.91;4987313;28;20046;-65
2023/05/14 04:53:04;;;;;;;1.88;1.50;;;;;;;15.00;71.06;101256.25;4986056;28;20117;-67
2023/05/14 04:55:30;;;;;;;1.40;1.27;;;;;;;15.00;72.08;101254.28;4985472;28;20025;-67
2023/05/14 04:57:55;;;;;;;4.05;1.25;;;;;;;15.08;72.33;101260.56;4990717;28;20032;-67
2023/05/14 05:00:21;;;;;;;2.25;1.27;;;;;;;15.24;72.31;101266.59;4980857;28;20169;-67
2023/05/14 05:02:50;;;;;;;1.58;1.08;;;;;;;15.31;72.13;101256.59;4990942;28;20022;-67
2023/05/14 05:05:15;;;;;;;2.38;1.17;;;;;;;15.49;71.74;101258.72;4989156;28;20042;-66
2023/05/14 05:07:41;;;;;;;2.63;1.50;;;;;;;15.34;70.85;101265.94;4994636;28;20169;-67
2023/05/14 05:10:07;;;;;;;1.52;1.02;;;;;;;15.45;71.51;101266.09;4956505;28;20243;-65
2023/05/14 05:12:34;;;;;;;1.80;1.20;;;;;;;15.60;71.15;101265.84;4975334;28;20038;-66
2023/05/14 05:14:59;;;;;;;2.35;1.25;;;;;;;15.73;69.16;101261.72;4993824;28;20148;-67
2023/05/14 05:17:24;;;;;;;3.75;1.10;;;;;;;15.78;68.64;101264.06;4973898;28;20038;-67
2023/05/14 05:19:51;;;;;;;2.85;1.50;;;;;;;15.81;68.55;101268.78;4978499;28;20492;-67
2023/05/14 05:22:16;;;;;;;1.88;1.42;;;;;;;16.06;68.46;101258.88;4989643;28;20085;-67
2023/05/14 05:24:42;;;;;;;2.28;1.30;;;;;;;16.35;67.88;101254.44;4991053;28;20034;-66
2023/05/14 05:27:10;;;;;;;1.63;1.00;;;;;;;16.65;68.54;101265.09;4980186;28;20030;-67
2023/05/14 05:29:36;;;;;;;1.25;1.00;;;;;;;16.98;67.65;101264.88;4987841;28;20022;-67
2023/05/14 05:32:01;;;;;;;1.92;1.23;;;;;;;17.31;66.00;101267.34;4988074;28;20046;-64
2023/05/14 05:34:27;;;;;;;1.52;1.00;;;;;;;17.50;65.84;101277.16;4989474;28;20041;-65
2023/05/14 05:36:52;;;;;;;1.60;1.17;;;;;;;17.58;64.43;101267.81;4987345;28;20058;-65
2023/05/14 05:39:18;;;;;;;0.82;0.82;;;;;;;17.60;63.03;101263.53;4975204;28;20029;-66
2023/05/14 05:41:43;;;;;;;1.77;1.42;;;;;;;17.72;62.08;101268.63;4988642;28;20054;-66
2023/05/14 05:44:09;;;;;;;2.30;1.58;;;;;;;18.06;62.27;101277.19;4983001;28;20053;-65
2023/05/14 05:46:34;;;;;;;2.30;0.93;;;;;;;18.35;62.64;101270.53;4982467;28;20041;-65
2023/05/14 05:48:59;;;;;;;1.95;1.30;;;;;;;18.67;61.97;101267.78;4975748;28;20070;-65
2023/05/14 05:51:25;;;;;;;0.85;0.65;;;;;;;18.85;60.23;101260.34;4966330;28;20035;-64
2023/05/14 05:53:50;;;;;;;1.70;0.88;;;;;;;19.05;60.11;101264.13;4987976;28;20475;-66
2023/05/14 05:56:16;;;;;;;1.40;1.00;;;;;;;19.37;59.40;101270.25;4983512;28;20402;-66
2023/05/14 05:58:41;;;;;;;1.45;1.00;;;;;;;19.40;58.58;101269.44;4986725;28;20395;-66
2023/05/14 06:01:07;;;;;;;1.10;0.80;;;;;;;19.59;57.72;101270.88;4981300;28;20411;-64
2023/05/14 06:03:32;;;;;;;1.63;0.80;;;;;;;19.79;56.96;101274.66;4986715;28;20620;-66
2023/05/14 06:05:58;;;;;;;1.55;1.15;;;;;;;20.07;56.50;101268.97;4971999;28;20422;-66
2023/05/14 06:08:23;;;;;;;2.22;1.10;;;;;;;19.94;54.89;101275.34;4992962;28;20502;-65
2023/05/14 06:10:49;;;;;;;1.00;0.85;;;;;;;20.08;55.22;101275.22;4987227;28;20102;-64
2023/05/14 06:13:14;;;;;;;1.98;1.00;;;;;;;19.65;55.22;101264.59;4987404;28;20065;-66
2023/05/14 06:15:39;;;;;;;1.10;0.73;;;;;;;19.95;55.51;101266.72;4966717;28;20037;-65
2023/05/14 06:18:08;;;;;;;1.02;0.93;;;;;;;20.11;55.41;101268.94;4968127;28;20509;-66
2023/05/14 06:20:33;;;;;;;1.20;1.05;;;;;;;20.39;56.11;101268.69;4971631;28;20042;-66
2023/05/14 06:22:58;;;;;;;1.20;0.80;;;;;;;20.63;55.25;101270.41;4962240;28;20093;-66
2023/05/14 06:25:24;;;;;;;1.42;0.90;;;;;;;20.87;53.45;101274.81;4978264;28;20037;-62
2023/05/14 06:27:50;;;;;;;2.70;1.10;;;;;;;20.71;53.12;101268.38;4983219;28;20058;-66
2023/05/14 06:30:15;;;;;;;0.63;0.60;;;;;;;20.76;54.40;101270.66;4982803;28;20030;-65
2023/05/14 06:32:40;;;;;;;1.17;0.90;;;;;;;20.90;53.71;101273.22;4987094;28;20043;-65
2023/05/14 06:35:06;;;;;;;1.40;0.82;;;;;;;21.16;53.36;101262.34;4976818;28;20109;-64
2023/05/14 06:37:32;;;;;;;1.35;0.88;;;;;;;21.49;51.58;101269.72;4991284;28;20551;-64
2023/05/14 06:39:58;;;;;;;1.33;1.02;;;;;;;21.34;50.82;101268.38;4984767;28;20130;-63
2023/05/14 06:42:23;;;;;;;1.50;0.95;;;;;;;21.58;50.95;101267.22;4976975;28;20050;-65
2023/05/14 06:44:51;;;;;;;1.65;0.90;;;;;;;21.75;52.21;101270.13;4981921;28;20100;-65
2023/05/14 06:47:17;;;;;;;0.90;0.70;;;;;;;21.88;50.93;101277.38;4985297;28;20138;-65
2023/05/14 06:49:42;;;;;;;1.30;0.80;;;;;;;22.02;49.78;101273.63;4969450;28;20109;-65
2023/05/14 06:52:08;;;;;;;1.40;0.65;;;;;;;22.19;49.24;101269.81;4976344;28;20042;-64
2023/05/14 06:54:33;;;;;;;1.38;0.70;;;;;;;22.09;48.71;101265.28;4964869;28;20118;-63
2023/05/14 06:56:59;;;;;;;0.60;0.40;;;;;;;22.34;49.71;101274.63;4986883;28;20038;-64
2023/05/14 06:59:24;;;;;;;1.73;0.88;;;;;;;22.51;48.50;101264.53;4972453;28;20110;-63
2023/05/14 07:01:50;;;;;;;1.27;0.80;;;;;;;22.51;47.43;101267.28;4983368;28;20380;-63
2023/05/14 07:04:15;;;;;;;0.75;0.70;;;;;;;22.67;46.99;101267.38;4981087;28;20050;-64
2023/05/14 07:06:41;;;;;;;1.15;0.70;;;;;;;22.72;46.13;101269.66;4975941;28;20058;-63
2023/05/14 07:09:06;;;;;;;0.68;0.68;;;;;;;22.39;46.91;101260.44;4980860;28;20444;-64
2023/05/14 07:11:32;;;;;;;2.00;0.77;;;;;;;22.77;48.22;101263.66;4977648;28;20039;-64
2023/05/14 07:13:58;;;;;;;0.70;0.50;;;;;;;22.71;47.41;101262.59;4988565;28;20070;-64
2023/05/14 07:16:25;;;;;;;1.48;0.70;;;;;;;22.77;47.48;101251.88;4963945;28;20069;-65
2023/05/14 07:18:50;;;;;;;0.77;0.77;;;;;;;22.69;45.27;101256.75;4989691;28;20074;-63
2023/05/14 07:21:16;;;;;;;0.60;0.60;;;;;;;22.90;45.80;101250.06;4981332;28;20384;-65
2023/05/14 07:23:41;;;;;;;1.67;0.80;;;;;;;23.15;46.98;101256.56;4989276;28;20055;-64
2023/05/14 07:26:07;;;;;;;1.30;0.90;;;;;;;23.15;45.82;101248.31;4979835;28;20061;-64
2023/05/14 07:28:33;;;;;;;1.75;1.17;;;;;;;23.16;44.88;101249.09;4985659;28;20022;-64
2023/05/14 07:30:59;;;;;;;1.15;0.90;;;;;;;23.20;44.29;101247.84;4986494;28;20104;-64
2023/05/14 07:33:24;;;;;;;0.80;0.75;;;;;;;22.74;44.17;101239.78;4971611;28;20046;-63
2023/05/14 07:35:50;;;;;;;1.17;0.75;;;;;;;22.93;46.34;101244.50;4970722;28;20045;-66
2023/05/14 07:38:36;;;;;;;0.70;0.65;;;;;;;23.03;45.28;101238.00;4985324;28;20376;-67
2023/05/14 07:41:02;;;;;;;2.45;0.98;;;;;;;23.06;45.12;101239.88;4901129;29;20051;-67
2023/05/14 07:43:27;;;;;;;0.88;0.88;;;;;;;23.65;43.13;101241.72;4906951;29;20458;-65
2023/05/14 07:45:52;;;;;;;0.68;0.55;;;;;;;23.93;44.41;101230.00;4903090;29;20148;-67
2023/05/14 07:48:18;;;;;;;0.73;0.60;;;;;;;24.11;43.68;101233.13;4906145;29;20047;-67
2023/05/14 07:50:44;;;;;;;1.00;0.63;;;;;;;23.64;42.41;101232.69;4908892;29;20035;-64
2023/05/14 07:53:12;;;;;;;0.88;0.57;;;;;;;23.88;44.41;101234.06;4900215;29;20051;-66
2023/05/14 07:55:38;;;;;;;0.70;0.70;;;;;;;24.13;42.37;101228.75;4907387;29;20039;-65
2023/05/14 07:58:03;;;;;;;0.63;0.45;;;;;;;24.42;42.87;101236.22;4910735;29;20062;-67
2023/05/14 08:00:29;;;;;;;2.15;0.90;;;;;;;24.45;41.60;101229.88;4882471;29;20044;-67
2023/05/14 08:02:54;;;;;;;0.77;0.55;;;;;;;24.66;41.02;101232.78;4907370;29;20047;-67
2023/05/14 08:05:20;;;;;;;1.30;1.20;;;;;;;24.77;41.30;101229.75;4897115;29;20052;-66
2023/05/14 08:07:45;;;;;;;0.73;0.63;;;;;;;25.26;39.48;101228.25;4905426;29;20047;-67
2023/05/14 08:10:11;;;;;;;0.82;0.68;;;;;;;25.29;39.07;101229.38;4907933;29;20044;-67
2023/05/14 08:12:39;;;;;;;2.35;0.70;;;;;;;25.48;39.58;101240.22;4894147;29;20047;-65
2023/05/14 08:15:06;;;;;;;1.27;0.90;;;;;;;25.47;39.73;101237.91;4909960;29;20130;-64
2023/05/14 08:17:32;;;;;;;1.05;0.70;;;;;;;25.70;38.28;101232.81;4920956;28;20070;-66
2023/05/14 08:19:57;;;;;;;1.08;0.98;;;;;;;25.86;38.22;101234.66;4983356;28;20026;-66
2023/05/14 08:22:23;;;;;;;0.88;0.80;;;;;;;25.83;38.49;101227.25;4983064;28;20046;-66
2023/05/14 08:24:48;;;;;;;0.57;0.50;;;;;;;25.88;38.54;101224.69;4983909;28;20377;-67
2023/05/14 08:27:15;;;;;;;1.95;0.70;;;;;;;25.46;37.97;101220.56;4968241;28;20038;-66
2023/05/14 08:29:40;;;;;;;0.93;0.55;;;;;;;25.62;38.27;101216.91;4980089;28;20018;-64
2023/05/14 08:32:06;;;;;;;1.15;0.80;;;;;;;25.76;38.29;101219.97;4978546;28;20034;-66
2023/05/14 08:34:31;;;;;;;1.10;0.63;;;;;;;26.04;38.68;101226.53;4976351;28;20117;-66
2023/05/14 08:36:58;;;;;;;0.70;0.70;;;;;;;26.14;37.96;101219.13;4981175;28;20042;-66
2023/05/14 08:39:23;;;;;;;1.38;0.80;;;;;;;26.29;36.85;101218.19;4980165;28;20035;-67
2023/05/14 08:41:50;;;;;;;1.10;0.77;;;;;;;26.51;36.80;101221.75;4986774;28;20545;-66
2023/05/14 08:44:24;;;;;;;1.20;0.60;;;;;;;26.62;36.25;101204.75;4987167;28;20061;-67
2023/05/14 08:46:52;;;;;;;2.67;0.90;;;;;;;26.70;35.54;101206.84;4974148;28;20057;-67
2023/05/14 08:49:31;;;;;;;1.00;0.68;;;;;;;26.79;36.49;101206.09;4978764;28;20472;-66
2023/05/14 08:52:00;;;;;;;1.23;0.60;;;;;;;26.88;38.08;101208.16;4970591;28;20841;-67
2023/05/14 08:54:27;;;;;;;1.23;0.98;;;;;;;27.09;37.52;101199.81;4991648;28;20615;-66
2023/05/14 08:56:53;;;;;;;1.55;0.75;;;;;;;26.60;33.97;101198.91;4982375;28;20034;-67
2023/05/14 08:59:19;;;;;;;0.73;0.63;;;;;;;26.73;35.49;101194.13;4988450;28;20043;-66
2023/05/14 09:01:51;;;;;;;3.05;0.70;;;;;;;26.84;35.39;101202.78;4979118;28;20035;-68
2023/05/14 09:04:20;;;;;;;0.77;0.70;;;;;;;27.19;35.02;101203.38;4971511;28;20034;-65
2023/05/14 09:06:48;;;;;;;0.50;0.45;;;;;;;27.34;34.47;101199.63;4988516;28;20046;-66
2023/05/14 09:09:15;;;;;;;0.73;0.52;;;;;;;27.69;33.77;101197.41;4986355;28;20483;-66
2023/05/14 09:11:41;;;;;;;1.63;1.17;;;;;;;27.93;33.63;101189.28;4981803;28;20049;-66
2023/05/14 09:14:08;;;;;;;1.55;0.73;;;;;;;27.55;34.50;101193.22;4981840;28;20368;-66
2023/05/14 09:16:35;;;;;;;1.40;0.82;;;;;;;27.63;34.68;101182.63;4981924;28;20038;-66
2023/05/14 09:19:05;;;;;;;1.05;0.80;;;;;;;27.46;35.26;101184.91;4985570;28;20723;-66
2023/05/14 09:21:31;;;;;;;1.50;0.90;;;;;;;27.73;35.38;101178.66;4980633;28;20106;-66
2023/05/14 09:23:57;;;;;;;0.90;0.80;;;;;;;27.80;33.75;101178.34;4981933;28;20585;-66
2023/05/14 09:26:25;;;;;;;1.33;0.88;;;;;;;28.00;34.07;101184.25;4982503;28;20375;-67
2023/05/14 09:28:56;;;;;;;1.98;1.15;;;;;;;27.86;33.71;101184.81;4988277;28;20041;-68
2023/05/14 09:31:22;;;;;;;0.80;0.73;;;;;;;28.17;33.13;101174.38;4985860;28;20910;-68
2023/05/14 09:33:51;;;;;;;1.73;0.57;;;;;;;28.16;32.58;101177.63;4987398;28;20103;-64
2023/05/14 09:36:17;;;;;;;1.30;0.60;;;;;;;28.37;32.49;101168.38;4986616;28;20035;-69
2023/05/14 09:38:43;;;;;;;0.80;0.60;;;;;;;28.53;32.03;101179.88;4973479;28;20061;-69
2023/05/14 09:41:08;;;;;;;0.57;0.55;;;;;;;28.76;32.04;101174.94;4985846;28;20034;-68
2023/05/14 09:43:34;;;;;;;1.10;0.80;;;;;;;28.88;32.25;101162.88;4989877;28;20031;-68
2023/05/14 09:45:59;;;;;;;1.02;0.80;;;;;;;29.08;30.69;101169.41;4984501;28;20487;-69
2023/05/14 09:48:25;;;;;;;0.82;0.70;;;;;;;28.81;31.64;101163.97;4984432;28;20022;-69
2023/05/14 09:50:51;;;;;;;1.55;0.63;;;;;;;29.01;31.54;101166.19;4966836;28;20037;-68
2023/05/14 09:53:17;;;;;;;1.17;0.80;;;;;;;29.00;31.30;101154.31;4991923;23;20134;-65
2023/05/14 09:55:44;;;;;;;1.50;0.85;;;;;;;29.10;31.04;101168.91;4985986;28;20399;-64
2023/05/14 09:58:15;;;;;;;0.80;0.60;;;;;;;28.96;30.54;101159.28;4986326;28;20042;-65
2023/05/14 10:00:46;;;;;;;1.20;0.73;;;;;;;29.12;31.04;101155.34;4968450;28;20042;-67
2023/05/14 10:03:14;;;;;;;0.50;0.50;;;;;;;29.19;31.46;101149.50;4979051;28;20039;-65
2023/05/14 10:05:43;;;;;;;0.77;0.57;;;;;;;29.44;30.43;101151.81;4967592;28;20073;-66
2023/05/14 10:08:32;;;;;;;1.52;0.70;;;;;;;29.49;30.24;101144.84;4967128;28;20027;-66
2023/05/14 10:11:00;;;;;;;1.52;0.60;;;;;;;29.66;30.90;101146.72;4958472;28;20051;-66
2023/05/14 10:13:36;;;;;;;0.90;0.55;;;;;;;29.69;29.95;101140.22;4965651;28;20447;-67
2023/05/14 10:16:13;;;;;;;0.65;0.60;;;;;;;29.73;30.32;101151.97;4962276;28;20031;-68
2023/05/14 10:18:41;;;;;;;0.88;0.82;;;;;;;30.09;29.59;101148.09;4965853;28;20117;-67
2023/05/14 10:21:09;;;;;;;0.65;0.57;;;;;;;29.96;29.45;101142.03;4968649;28;20039;-68
2023/05/14 10:23:36;;;;;;;2.20;0.47;;;;;;;30.00;29.83;101142.63;4974056;28;20023;-68
2023/05/14 10:26:03;;;;;;;0.98;0.60;;;;;;;29.99;29.61;101152.97;4973944;28;20051;-68
2023/05/14 10:28:29;;;;;;;0.95;0.80;;;;;;;30.12;29.47;101141.59;4971385;28;20033;-67
2023/05/14 10:30:55;;;;;;;1.52;0.88;;;;;;;29.96;28.95;101133.69;4965220;28;20050;-68
2023/05/14 10:33:20;;;;;;;1.05;0.70;;;;;;;29.81;29.51;101128.09;4973562;28;20034;-67
2023/05/14 10:36:06;;;;;;;0.88;0.70;;;;;;;30.00;28.86;101139.84;4969800;28;20112;-65
2023/05/14 10:38:33;;;;;;;1.20;0.60;;;;;;;29.95;29.38;101126.59;4946661;28;20027;-67
2023/05/14 10:41:01;;;;;;;1.42;0.63;;;;;;;29.92;29.74;101120.00;4958861;28;20051;-67
2023/05/14 10:43:29;;;;;;;0.93;0.77;;;;;;;29.87;30.11;101134.53;4969626;28;20022;-68
2023/05/14 10:45:56;;;;;;;0.65;0.65;;;;;;;29.62;29.56;101131.47;4968264;28;21566;-66
2023/05/14 10:48:21;;;;;;;1.85;0.90;;;;;;;29.14;29.77;101114.03;4951680;28;20105;-66
2023/05/14 10:50:48;;;;;;;1.00;0.90;;;;;;;28.91;30.25;101112.75;4970454;28;20125;-66
2023/05/14 10:53:17;;;;;;;0.93;0.77;;;;;;;28.71;30.56;101114.53;4962724;28;20122;-67
2023/05/14 10:55:44;;;;;;;4.25;1.17;;;;;;;28.64;31.69;101104.53;4952699;28;20049;-66
2023/05/14 10:58:10;;;;;;;1.40;1.00;;;;;;;28.50;31.58;101099.63;4967215;28;20070;-66
2023/05/14 11:00:36;;;;;;;0.80;0.60;;;;;;;28.11;32.57;101103.41;4966049;28;20035;-64
2023/05/14 11:03:05;;;;;;;1.00;0.80;;;;;;;28.28;31.55;101107.41;4969798;28;20081;-66
2023/05/14 11:05:32;;;;;;;2.08;1.00;;;;;;;28.44;31.28;101102.28;4965874;28;20437;-66
2023/05/14 11:08:01;;;;;;;3.40;0.77;;;;;;;28.37;31.32;101096.28;4956082;28;20052;-66
2023/05/14 11:10:28;;;;;;;1.20;0.90;;;;;;;28.30;31.28;101100.16;4958793;28;20424;-67
2023/05/14 11:12:55;;;;;;;1.52;0.95;;;;;;;28.12;31.12;101089.13;4955017;28;20045;-66
2023/05/14 11:15:23;;;;;;;0.73;0.55;;;;;;;28.14;31.88;101083.09;4939686;28;20085;-66
2023/05/14 11:17:53;;;;;;;1.60;0.80;;;;;;;28.57;30.99;101077.16;4957294;28;20048;-66
2023/05/14 11:20:19;;;;;;;0.70;0.57;;;;;;;28.86;31.54;101093.22;4963248;28;20035;-66
2023/05/14 11:22:47;;;;;;;2.15;0.93;;;;;;;29.19;30.65;101091.97;4941498;28;20030;-63